Time;durP1;ratioP1;P1;durP2;ratioP2;P2;SDS_P1;SDS_P2;PMS_P1;PMS_P2;Temp;Humidity;BMP_temperature;BMP_pressure;BME280_temperature;BME280_humidity;BME280_pressure;Samples;Min_cycle;Max_cycle;Signal;HPM_P1;HPM_P2
2022/04/09 00:00:32;;;;;;;5.15;3.72;;;;;;;;;;4993422;28;20463;-71
2022/04/09 00:02:58;;;;;;;6.38;3.28;;;;;;;;;;4975978;28;20109;-72
2022/04/09 00:05:24;;;;;;;5.22;3.78;;;;;;;;;;4993295;28;20028;-72
2022/04/09 00:07:50;;;;;;;6.35;4.35;;;;;;;;;;4992690;28;20157;-72
2022/04/09 00:10:16;;;;;;;7.53;4.28;;;;;;;;;;4993572;28;20532;-72
2022/04/09 00:12:47;;;;;;;5.13;3.65;;;;;;;;;;4993295;28;20022;-71
2022/04/09 00:15:13;;;;;;;5.32;4.22;;;;;;;;;;4997092;28;20044;-71
2022/04/09 00:17:41;;;;;;;8.38;4.68;;;;;;;;;;5000287;28;20022;-72
2022/04/09 00:20:07;;;;;;;6.60;3.58;;;;;;;;;;5012062;28;20028;-72
2022/04/09 00:22:33;;;;;;;3.25;2.88;;;;;;;;;;5012616;28;20034;-72
2022/04/09 00:24:59;;;;;;;9.73;4.28;;;;;;;;;;4994667;28;20080;-72
2022/04/09 00:27:25;;;;;;;4.72;3.33;;;;;;;;;;4994309;28;20080;-71
2022/04/09 00:29:52;;;;;;;5.88;3.38;;;;;;;;;;5012129;28;20075;-71
2022/04/09 00:32:18;;;;;;;4.63;3.00;;;;;;;;;;4994618;28;20025;-72
2022/04/09 00:34:44;;;;;;;4.80;3.70;;;;;;;;;;5012582;28;20026;-72
2022/04/09 00:37:10;;;;;;;7.75;3.53;;;;;;;;;;5011654;28;20084;-73
2022/04/09 00:39:36;;;;;;;7.57;3.67;;;;;;;;;;5012181;28;20037;-73
2022/04/09 00:42:02;;;;;;;5.82;3.88;;;;;;;;;;5012135;28;20030;-73
2022/04/09 00:44:28;;;;;;;8.73;4.60;;;;;;;;;;5012119;28;20488;-72
2022/04/09 00:46:54;;;;;;;8.20;4.18;;;;;;;;;;5011925;28;20030;-73
2022/04/09 00:49:20;;;;;;;6.55;4.55;;;;;;;;;;5006813;28;20111;-71
2022/04/09 00:51:46;;;;;;;7.53;4.68;;;;;;;;;;5000563;28;19982;-71
2022/04/09 00:54:13;;;;;;;11.40;4.82;;;;;;;;;;4992518;28;20031;-72
2022/04/09 00:56:39;;;;;;;9.15;4.82;;;;;;;;;;4974933;28;20102;-71
2022/04/09 00:59:06;;;;;;;5.55;4.18;;;;;;;;;;4991473;28;20027;-71
2022/04/09 01:01:36;;;;;;;8.73;4.50;;;;;;;;;;4992481;28;20029;-72
2022/04/09 01:04:05;;;;;;;13.70;5.00;;;;;;;;;;4992115;28;20556;-73
2022/04/09 01:06:32;;;;;;;7.20;4.20;;;;;;;;;;4992406;28;20030;-71
2022/04/09 01:08:58;;;;;;;6.63;4.60;;;;;;;;;;4991509;28;20080;-71
2022/04/09 01:11:25;;;;;;;10.60;5.38;;;;;;;;;;4974604;28;20038;-72
2022/04/09 01:13:51;;;;;;;6.28;4.47;;;;;;;;;;4991819;28;20049;-72
2022/04/09 01:16:18;;;;;;;6.53;4.75;;;;;;;;;;4974563;28;20037;-73
2022/04/09 01:18:44;;;;;;;5.90;4.30;;;;;;;;;;4991651;28;20014;-72
2022/04/09 01:21:10;;;;;;;7.53;5.07;;;;;;;;;;4991973;28;20030;-72
2022/04/09 01:23:36;;;;;;;6.55;4.70;;;;;;;;;;4998371;28;20026;-71
2022/04/09 01:26:03;;;;;;;8.75;5.18;;;;;;;;;;4993701;28;20025;-72
2022/04/09 01:28:29;;;;;;;7.00;3.90;;;;;;;;;;5010800;28;20423;-72
2022/04/09 01:30:55;;;;;;;5.93;3.92;;;;;;;;;;5011194;28;20080;-73
2022/04/09 01:33:22;;;;;;;4.97;3.95;;;;;;;;;;4993931;28;20056;-73
2022/04/09 01:35:48;;;;;;;6.32;4.57;;;;;;;;;;5011217;28;20032;-72
2022/04/09 01:38:15;;;;;;;7.65;4.97;;;;;;;;;;5010836;28;20056;-72
2022/04/09 01:40:41;;;;;;;6.70;5.13;;;;;;;;;;5011481;28;20539;-71
2022/04/09 01:43:07;;;;;;;8.13;5.50;;;;;;;;;;5010694;28;20072;-72
2022/04/09 01:45:33;;;;;;;8.90;4.60;;;;;;;;;;5011536;28;20045;-72
2022/04/09 01:48:00;;;;;;;9.30;4.35;;;;;;;;;;5010485;28;20059;-72
2022/04/09 01:50:26;;;;;;;6.38;4.93;;;;;;;;;;5011310;28;20076;-72
2022/04/09 01:52:55;;;;;;;8.93;5.80;;;;;;;;;;5011375;28;20022;-72
2022/04/09 01:55:21;;;;;;;7.40;4.70;;;;;;;;;;5011624;28;20014;-72
2022/04/09 01:57:48;;;;;;;11.45;5.63;;;;;;;;;;5010545;28;20022;-72
2022/04/09 02:00:15;;;;;;;7.78;4.90;;;;;;;;;;5011495;28;20076;-70
2022/04/09 02:02:42;;;;;;;8.90;5.03;;;;;;;;;;4993631;28;20030;-71
2022/04/09 02:05:08;;;;;;;6.72;4.43;;;;;;;;;;5011187;28;20037;-72
2022/04/09 02:07:35;;;;;;;6.80;4.45;;;;;;;;;;4993008;28;20225;-71
2022/04/09 02:10:02;;;;;;;8.00;4.47;;;;;;;;;;5010886;28;20108;-72
2022/04/09 02:12:31;;;;;;;9.02;4.47;;;;;;;;;;4994001;28;20037;-72
2022/04/09 02:14:56;;;;;;;8.18;4.63;;;;;;;;;;4994290;28;20395;-72
2022/04/09 02:17:22;;;;;;;7.38;4.75;;;;;;;;;;5011530;28;20025;-72
2022/04/09 02:19:48;;;;;;;6.90;5.05;;;;;;;;;;4993354;28;20487;-71
2022/04/09 02:22:14;;;;;;;10.18;5.18;;;;;;;;;;5011128;28;20476;-70
2022/04/09 02:24:41;;;;;;;6.72;4.80;;;;;;;;;;4993589;28;20026;-71
2022/04/09 02:27:07;;;;;;;7.82;5.15;;;;;;;;;;5007550;28;20117;-70
2022/04/09 02:29:33;;;;;;;8.52;5.22;;;;;;;;;;4991534;28;20131;-71
2022/04/09 02:32:01;;;;;;;11.02;5.40;;;;;;;;;;4973902;28;20026;-71
2022/04/09 02:34:27;;;;;;;7.43;5.15;;;;;;;;;;4974194;28;20113;-71
2022/04/09 02:36:53;;;;;;;7.80;5.35;;;;;;;;;;4991315;28;20098;-71
2022/04/09 02:39:21;;;;;;;11.90;5.53;;;;;;;;;;4995184;28;20141;-70
2022/04/09 02:41:48;;;;;;;9.10;5.38;;;;;;;;;;5010678;28;20029;-71
2022/04/09 02:44:14;;;;;;;10.20;5.88;;;;;;;;;;5010941;28;20061;-71
2022/04/09 02:46:40;;;;;;;8.95;5.60;;;;;;;;;;5010974;28;20496;-71
2022/04/09 02:49:06;;;;;;;9.65;6.05;;;;;;;;;;5010219;28;20022;-72
2022/04/09 02:51:32;;;;;;;9.48;6.20;;;;;;;;;;5010820;28;20117;-72
2022/04/09 02:53:58;;;;;;;10.85;6.20;;;;;;;;;;5010434;28;20396;-71
2022/04/09 02:56:23;;;;;;;8.52;5.57;;;;;;;;;;5012560;28;20014;-71
2022/04/09 02:58:49;;;;;;;10.77;6.35;;;;;;;;;;5013292;28;20107;-72
2022/04/09 03:01:16;;;;;;;11.85;5.97;;;;;;;;;;5014332;28;20026;-72
2022/04/09 03:03:41;;;;;;;9.52;5.65;;;;;;;;;;5014270;28;20022;-71
2022/04/09 03:06:07;;;;;;;8.38;5.53;;;;;;;;;;5014053;28;20480;-70
2022/04/09 03:08:34;;;;;;;11.27;6.05;;;;;;;;;;5013325;28;20548;-71
2022/04/09 03:11:00;;;;;;;7.03;5.97;;;;;;;;;;5014146;28;20109;-72
2022/04/09 03:13:26;;;;;;;10.55;6.25;;;;;;;;;;5013983;28;20018;-72
2022/04/09 03:15:52;;;;;;;8.90;6.80;;;;;;;;;;5013833;28;20076;-73
2022/04/09 03:18:18;;;;;;;10.93;7.05;;;;;;;;;;5013261;28;20033;-72
2022/04/09 03:20:44;;;;;;;9.77;7.03;;;;;;;;;;5013947;28;20025;-71
2022/04/09 03:23:10;;;;;;;12.73;7.85;;;;;;;;;;5013597;28;20396;-72
2022/04/09 03:25:36;;;;;;;11.40;7.60;;;;;;;;;;5014104;28;20432;-73
2022/04/09 03:28:02;;;;;;;11.68;7.88;;;;;;;;;;5013109;28;20032;-73
2022/04/09 03:30:28;;;;;;;11.68;7.78;;;;;;;;;;5013892;28;20026;-71
2022/04/09 03:32:54;;;;;;;10.63;7.28;;;;;;;;;;5013617;28;20546;-71
2022/04/09 03:35:20;;;;;;;9.95;7.45;;;;;;;;;;4996248;28;20472;-71
2022/04/09 03:37:46;;;;;;;9.80;7.55;;;;;;;;;;5012600;28;20113;-71
2022/04/09 03:40:15;;;;;;;11.05;7.50;;;;;;;;;;5013682;28;20480;-72
2022/04/09 03:42:44;;;;;;;11.25;7.88;;;;;;;;;;5014455;28;20034;-73
2022/04/09 03:45:10;;;;;;;12.25;7.57;;;;;;;;;;5010650;28;20077;-72
2022/04/09 03:47:36;;;;;;;13.35;7.65;;;;;;;;;;4993166;28;20042;-72
2022/04/09 03:50:03;;;;;;;12.45;8.27;;;;;;;;;;4993690;28;20050;-72
2022/04/09 03:52:29;;;;;;;12.00;7.68;;;;;;;;;;5007583;28;20034;-72
2022/04/09 03:54:55;;;;;;;9.73;7.50;;;;;;;;;;5013192;28;20030;-72
2022/04/09 03:57:21;;;;;;;18.02;7.88;;;;;;;;;;4994868;28;20022;-72
2022/04/09 03:59:48;;;;;;;13.50;9.00;;;;;;;;;;4995910;28;20399;-71
2022/04/09 04:02:14;;;;;;;11.25;8.60;;;;;;;;;;5013089;28;20029;-72
2022/04/09 04:04:40;;;;;;;14.95;8.52;;;;;;;;;;5004909;28;20029;-72
2022/04/09 04:07:06;;;;;;;12.70;8.80;;;;;;;;;;4999268;28;20030;-71
2022/04/09 04:09:32;;;;;;;13.25;7.75;;;;;;;;;;4975932;28;20049;-72
2022/04/09 04:11:58;;;;;;;13.65;7.95;;;;;;;;;;4993249;28;20026;-72
2022/04/09 04:14:25;;;;;;;15.40;8.85;;;;;;;;;;4993443;28;20045;-71
2022/04/09 04:16:51;;;;;;;12.10;8.52;;;;;;;;;;4976089;28;20029;-71
2022/04/09 04:19:18;;;;;;;15.52;7.65;;;;;;;;;;4992573;28;20048;-70
2022/04/09 04:21:44;;;;;;;11.63;7.93;;;;;;;;;;4975644;28;20026;-71
2022/04/09 04:24:10;;;;;;;12.07;8.00;;;;;;;;;;5004132;28;20024;-71
2022/04/09 04:26:36;;;;;;;13.57;8.13;;;;;;;;;;5012799;28;20026;-71
2022/04/09 04:29:02;;;;;;;11.57;6.80;;;;;;;;;;5012055;28;20033;-70
2022/04/09 04:31:28;;;;;;;12.57;6.68;;;;;;;;;;5012462;28;20033;-71
2022/04/09 04:33:54;;;;;;;12.90;7.28;;;;;;;;;;4994596;28;20460;-71
2022/04/09 04:36:20;;;;;;;14.68;6.45;;;;;;;;;;4994798;28;20022;-71
2022/04/09 04:38:47;;;;;;;11.70;6.45;;;;;;;;;;4994036;28;20122;-70
2022/04/09 04:41:13;;;;;;;9.93;5.72;;;;;;;;;;4994672;28;20022;-70
2022/04/09 04:43:39;;;;;;;13.80;6.78;;;;;;;;;;5012213;28;20034;-71
2022/04/09 04:46:05;;;;;;;7.80;4.88;;;;;;;;;;5012035;28;20041;-72
2022/04/09 04:48:33;;;;;;;12.98;5.97;;;;;;;;;;4993651;28;20026;-70
2022/04/09 04:50:58;;;;;;;13.38;5.57;;;;;;;;;;5012202;28;20037;-71
2022/04/09 04:53:24;;;;;;;13.88;5.55;;;;;;;;;;5012015;28;20013;-70
2022/04/09 04:55:50;;;;;;;9.25;4.65;;;;;;;;;;5011911;28;20104;-71
2022/04/09 04:58:18;;;;;;;8.35;4.50;;;;;;;;;;5011093;28;20026;-71
2022/04/09 05:00:44;;;;;;;9.77;4.32;;;;;;;;;;4996601;28;20034;-71
2022/04/09 05:03:10;;;;;;;9.63;5.22;;;;;;;;;;5009486;28;20515;-70
2022/04/09 05:05:36;;;;;;;8.60;4.70;;;;;;;;;;5011684;28;20021;-70
2022/04/09 05:08:02;;;;;;;14.68;5.15;;;;;;;;;;5000715;28;20038;-70
2022/04/09 05:10:28;;;;;;;13.45;5.28;;;;;;;;;;4975059;28;20031;-70
2022/04/09 05:12:54;;;;;;;13.13;4.72;;;;;;;;;;4992196;28;20022;-72
2022/04/09 05:15:20;;;;;;;11.10;4.53;;;;;;;;;;4994219;28;20029;-71
2022/04/09 05:17:46;;;;;;;10.05;4.32;;;;;;;;;;4992609;28;20027;-70
2022/04/09 05:20:14;;;;;;;8.88;4.40;;;;;;;;;;4993063;28;20031;-68
2022/04/09 05:22:43;;;;;;;8.23;4.07;;;;;;;;;;4992780;28;20109;-68
2022/04/09 05:25:10;;;;;;;8.65;3.92;;;;;;;;;;4993400;28;20391;-68
2022/04/09 05:27:36;;;;;;;14.15;6.53;;;;;;;;;;4993144;28;20079;-68
2022/04/09 05:30:03;;;;;;;11.50;3.85;;;;;;;;;;5011330;28;20065;-68
2022/04/09 05:32:29;;;;;;;5.80;3.80;;;;;;;;;;5011392;28;20030;-69
2022/04/09 05:34:55;;;;;;;12.00;4.68;;;;;;;;;;5011494;28;20083;-68
2022/04/09 05:37:21;;;;;;;9.40;4.38;;;;;;;;;;5010654;28;20021;-68
2022/04/09 05:39:47;;;;;;;9.88;4.03;;;;;;;;;;5011401;28;20479;-69
2022/04/09 05:42:13;;;;;;;10.52;5.07;;;;;;;;;;5011508;28;20094;-68
2022/04/09 05:44:39;;;;;;;11.40;4.30;;;;;;;;;;4993644;28;20018;-74
2022/04/09 05:47:05;;;;;;;12.52;4.50;;;;;;;;;;5010387;28;20037;-68
2022/04/09 05:49:32;;;;;;;11.00;6.03;;;;;;;;;;4993633;28;20479;-68
2022/04/09 05:51:58;;;;;;;11.35;5.03;;;;;;;;;;5010883;28;20121;-68
2022/04/09 05:54:24;;;;;;;13.73;4.45;;;;;;;;;;5005570;28;20041;-68
2022/04/09 05:56:50;;;;;;;10.60;4.53;;;;;;;;;;4997221;28;20030;-69
2022/04/09 05:59:16;;;;;;;10.38;4.70;;;;;;;;;;4989162;28;20493;-69
2022/04/09 06:01:42;;;;;;;9.15;4.47;;;;;;;;;;4995563;28;20062;-69
2022/04/09 06:04:09;;;;;;;11.63;4.38;;;;;;;;;;4999583;28;20037;-70
2022/04/09 06:06:37;;;;;;;17.13;4.57;;;;;;;;;;4974032;28;20041;-69
2022/04/09 06:09:04;;;;;;;11.63;3.13;;;;;;;;;;4990608;28;20116;-69
2022/04/09 06:11:30;;;;;;;9.68;3.58;;;;;;;;;;4991750;28;20150;-67
2022/04/09 06:13:56;;;;;;;6.95;3.45;;;;;;;;;;4991253;28;20061;-68
2022/04/09 06:16:22;;;;;;;11.30;3.47;;;;;;;;;;5004422;28;20033;-69
2022/04/09 06:18:48;;;;;;;9.02;3.88;;;;;;;;;;5010153;28;20024;-69
2022/04/09 06:21:14;;;;;;;12.07;3.75;;;;;;;;;;5010894;28;20022;-69
2022/04/09 06:23:40;;;;;;;6.38;3.03;;;;;;;;;;4993128;28;20403;-69
2022/04/09 06:26:07;;;;;;;8.65;3.20;;;;;;;;;;4992347;28;20036;-72
2022/04/09 06:28:34;;;;;;;4.65;3.00;;;;;;;;;;4985190;28;20037;-71
2022/04/09 06:31:00;;;;;;;9.40;2.55;;;;;;;;;;5008397;28;20033;-70
2022/04/09 06:33:26;;;;;;;10.63;2.95;;;;;;;;;;4994414;28;20027;-71
2022/04/09 06:35:52;;;;;;;6.65;2.80;;;;;;;;;;4995086;28;20130;-72
2022/04/09 06:38:18;;;;;;;5.78;2.08;;;;;;;;;;5000531;28;20108;-72
2022/04/09 06:40:44;;;;;;;9.38;2.30;;;;;;;;;;5009987;28;20076;-72
2022/04/09 06:43:10;;;;;;;5.95;2.83;;;;;;;;;;4995753;28;20033;-72
2022/04/09 06:45:36;;;;;;;4.97;2.17;;;;;;;;;;5007870;28;20365;-72
2022/04/09 06:48:02;;;;;;;6.30;2.17;;;;;;;;;;4983253;28;20022;-74
2022/04/09 06:50:28;;;;;;;7.95;2.97;;;;;;;;;;4993892;28;20084;-74
2022/04/09 06:52:54;;;;;;;12.10;2.67;;;;;;;;;;4994374;28;20041;-73
2022/04/09 06:55:20;;;;;;;6.85;2.90;;;;;;;;;;4994549;28;20384;-75
2022/04/09 06:57:46;;;;;;;7.25;2.20;;;;;;;;;;4976181;28;20023;-74
2022/04/09 07:00:14;;;;;;;5.90;2.40;;;;;;;;;;4976971;28;20034;-73
2022/04/09 07:02:40;;;;;;;5.65;2.38;;;;;;;;;;4996048;28;20034;-74
2022/04/09 07:05:06;;;;;;;5.90;2.13;;;;;;;;;;4977352;28;20037;-73
2022/04/09 07:07:33;;;;;;;7.45;2.65;;;;;;;;;;4976090;28;20522;-73
2022/04/09 07:10:11;;;;;;;5.38;2.22;;;;;;;;;;4976757;28;20019;-74
2022/04/09 07:12:38;;;;;;;5.28;2.55;;;;;;;;;;4995281;28;20098;-75
2022/04/09 07:15:04;;;;;;;7.70;2.78;;;;;;;;;;4995915;28;20054;-74
2022/04/09 07:17:31;;;;;;;6.75;2.90;;;;;;;;;;4974038;28;20019;-75
2022/04/09 07:19:58;;;;;;;6.32;3.38;;;;;;;;;;4974888;28;20672;-75
2022/04/09 07:22:24;;;;;;;10.15;3.53;;;;;;;;;;4993465;28;20106;-73
2022/04/09 07:24:50;;;;;;;7.78;5.05;;;;;;;;;;5007525;28;20180;-74
2022/04/09 07:27:16;;;;;;;9.63;5.95;;;;;;;;;;4999220;28;20097;-74
2022/04/09 07:29:42;;;;;;;10.10;6.03;;;;;;;;;;4994299;28;20030;-73
2022/04/09 07:32:08;;;;;;;11.68;6.95;;;;;;;;;;5002344;28;20033;-74
2022/04/09 07:34:34;;;;;;;11.43;7.70;;;;;;;;;;4992276;28;20018;-74
2022/04/09 07:37:00;;;;;;;23.60;16.40;;;;;;;;;;5008662;28;20022;-74
2022/04/09 07:39:26;;;;;;;40.30;24.77;;;;;;;;;;4996437;28;20467;-74
2022/04/09 07:41:52;;;;;;;47.95;28.30;;;;;;;;;;4991804;28;20072;-75
2022/04/09 07:44:18;;;;;;;16.73;10.98;;;;;;;;;;5003034;28;20034;-74
2022/04/09 07:46:44;;;;;;;16.45;11.90;;;;;;;;;;4993551;28;20034;-72
2022/04/09 07:49:10;;;;;;;18.65;12.63;;;;;;;;;;5008810;28;20029;-71
2022/04/09 07:51:36;;;;;;;17.88;13.20;;;;;;;;;;4993289;28;20066;-72
2022/04/09 07:54:02;;;;;;;18.45;12.73;;;;;;;;;;4976148;28;20042;-72
2022/04/09 07:56:28;;;;;;;19.67;12.82;;;;;;;;;;4993462;28;20034;-71
2022/04/09 07:58:54;;;;;;;12.13;6.88;;;;;;;;;;4995864;28;20014;-72
2022/04/09 08:01:20;;;;;;;16.45;9.02;;;;;;;;;;4997000;28;20460;-72
2022/04/09 08:03:49;;;;;;;15.30;10.20;;;;;;;;;;4989684;28;20061;-76
2022/04/09 08:06:15;;;;;;;16.02;10.77;;;;;;;;;;5000702;28;20571;-76
2022/04/09 08:08:41;;;;;;;16.75;9.10;;;;;;;;;;4981741;28;20026;-75
2022/04/09 08:11:08;;;;;;;12.82;7.82;;;;;;;;;;4993000;28;20573;-71
2022/04/09 08:13:35;;;;;;;15.05;9.18;;;;;;;;;;5000261;28;20049;-79
2022/04/09 08:16:00;;;;;;;32.58;19.23;;;;;;;;;;4996204;28;20387;-77
2022/04/09 08:18:26;;;;;;;15.80;10.02;;;;;;;;;;4994609;28;20018;-69
2022/04/09 08:20:53;;;;;;;15.98;9.88;;;;;;;;;;4995588;28;20032;-69
2022/04/09 08:23:19;;;;;;;13.52;9.52;;;;;;;;;;4992750;28;20026;-70
2022/04/09 08:25:45;;;;;;;15.68;9.30;;;;;;;;;;4991373;28;20034;-70
2022/04/09 08:28:11;;;;;;;11.00;7.15;;;;;;;;;;4975962;28;20085;-70
2022/04/09 08:30:38;;;;;;;12.77;7.70;;;;;;;;;;4995495;28;20092;-72
2022/04/09 08:33:07;;;;;;;14.00;7.97;;;;;;;;;;4998272;28;20010;-71
2022/04/09 08:35:33;;;;;;;12.63;7.68;;;;;;;;;;4987275;28;20492;-74
2022/04/09 08:37:59;;;;;;;10.85;5.40;;;;;;;;;;4975717;28;20069;-78
2022/04/09 08:40:25;;;;;;;15.75;7.03;;;;;;;;;;5007836;28;20056;-77
2022/04/09 08:42:52;;;;;;;7.63;4.72;;;;;;;;;;4996599;28;20492;-74
2022/04/09 08:45:18;;;;;;;12.38;5.03;;;;;;;;;;4977111;28;20030;-74
2022/04/09 08:47:45;;;;;;;13.68;7.35;;;;;;;;;;4997659;28;20073;-78
2022/04/09 08:50:12;;;;;;;8.43;4.40;;;;;;;;;;5013232;28;20136;-77
2022/04/09 08:52:40;;;;;;;10.05;5.63;;;;;;;;;;4982442;28;20274;-78
2022/04/09 08:55:07;;;;;;;8.52;4.03;;;;;;;;;;5002791;28;20022;-78
2022/04/09 08:57:35;;;;;;;6.78;4.25;;;;;;;;;;5014723;28;20041;-75
2022/04/09 09:00:04;;;;;;;6.97;3.80;;;;;;;;;;5006817;28;20049;-72
2022/04/09 09:02:31;;;;;;;10.25;4.25;;;;;;;;;;4994084;28;20048;-74
2022/04/09 09:04:57;;;;;;;6.35;3.03;;;;;;;;;;4987864;28;20756;-76
2022/04/09 09:07:24;;;;;;;11.73;4.72;;;;;;;;;;4987955;28;20040;-71
2022/04/09 09:09:51;;;;;;;10.45;4.03;;;;;;;;;;4997684;28;20030;-73
2022/04/09 09:12:27;;;;;;;7.93;3.72;;;;;;;;;;5003176;28;20053;-72
2022/04/09 09:14:54;;;;;;;5.32;2.50;;;;;;;;;;4996423;28;20109;-71
2022/04/09 09:17:27;;;;;;;5.15;2.50;;;;;;;;;;4991301;28;20350;-72
2022/04/09 09:19:53;;;;;;;7.10;3.30;;;;;;;;;;5008206;28;20024;-71
2022/04/09 09:22:19;;;;;;;5.50;2.53;;;;;;;;;;5009209;28;20101;-72
2022/04/09 09:25:04;;;;;;;8.95;4.85;;;;;;;;;;5009122;28;20069;-72
2022/04/09 09:27:30;;;;;;;11.32;5.30;;;;;;;;;;5004327;28;20153;-71
2022/04/09 09:29:56;;;;;;;6.68;3.95;;;;;;;;;;4989109;28;20023;-73
2022/04/09 09:32:26;;;;;;;6.80;3.97;;;;;;;;;;4991445;28;20412;-71
2022/04/09 09:34:56;;;;;;;9.27;4.30;;;;;;;;;;5010909;28;20468;-72
2022/04/09 09:37:24;;;;;;;6.53;3.03;;;;;;;;;;4990978;28;20018;-72
2022/04/09 09:39:50;;;;;;;6.57;4.10;;;;;;;;;;4993223;28;20027;-71
2022/04/09 09:42:20;;;;;;;6.85;4.07;;;;;;;;;;5000051;28;20027;-72
2022/04/09 09:44:46;;;;;;;13.13;5.50;;;;;;;;;;5039127;22;20038;-69
2022/04/09 09:47:12;;;;;;;12.15;4.63;;;;;;;;;;5023150;28;20040;-69
2022/04/09 09:49:41;;;;;;;7.40;3.72;;;;;;;;;;5014810;28;20036;-70
2022/04/09 09:52:09;;;;;;;8.20;3.45;;;;;;;;;;5023295;28;20065;-69
2022/04/09 09:54:53;;;;;;;8.82;4.63;;;;;;;;;;5007546;28;20708;-70
2022/04/09 09:57:27;;;;;;;9.30;4.30;;;;;;;;;;5006594;28;20233;-68
2022/04/09 09:59:54;;;;;;;12.93;6.03;;;;;;;;;;5010056;28;20060;-67
2022/04/09 10:02:21;;;;;;;12.02;4.45;;;;;;;;;;5007316;28;20034;-69
2022/04/09 10:04:47;;;;;;;6.63;2.50;;;;;;;;;;5006221;28;20034;-76
2022/04/09 10:07:17;;;;;;;5.00;2.72;;;;;;;;;;5012634;28;20017;-78
2022/04/09 10:09:44;;;;;;;4.13;2.00;;;;;;;;;;5011348;28;20034;-74
2022/04/09 10:12:14;;;;;;;2.72;1.50;;;;;;;;;;5009241;28;20018;-76
2022/04/09 10:14:40;;;;;;;6.75;2.38;;;;;;;;;;5001932;28;20022;-75
2022/04/09 10:17:07;;;;;;;2.92;1.42;;;;;;;;;;5012375;28;20054;-68
2022/04/09 10:19:35;;;;;;;7.55;2.10;;;;;;;;;;5013301;28;20030;-68
2022/04/09 10:22:01;;;;;;;4.10;1.83;;;;;;;;;;5014025;28;20065;-66
2022/04/09 10:24:28;;;;;;;5.47;1.50;;;;;;;;;;5013889;28;20032;-70
2022/04/09 10:26:55;;;;;;;6.10;2.13;;;;;;;;;;5006751;28;20396;-69
2022/04/09 10:29:21;;;;;;;4.40;2.17;;;;;;;;;;5012801;28;20053;-69
2022/04/09 10:31:51;;;;;;;5.32;2.65;;;;;;;;;;5012698;28;20480;-66
2022/04/09 10:34:18;;;;;;;6.72;3.63;;;;;;;;;;5013431;28;20495;-68
2022/04/09 10:36:47;;;;;;;5.07;2.83;;;;;;;;;;5013613;28;20018;-67
2022/04/09 10:39:20;;;;;;;8.25;1.90;;;;;;;;;;5012659;28;20030;-68
2022/04/09 10:41:46;;;;;;;2.92;1.60;;;;;;;;;;5001542;28;20484;-68
2022/04/09 10:44:32;;;;;;;3.97;1.98;;;;;;;;;;5013176;28;20102;-68
2022/04/09 10:47:01;;;;;;;3.55;1.75;;;;;;;;;;4995547;28;20030;-68
2022/04/09 10:49:28;;;;;;;7.53;2.03;;;;;;;;;;5012199;28;20022;-69
2022/04/09 10:51:58;;;;;;;5.63;2.53;;;;;;;;;;5013227;28;20083;-67
2022/04/09 10:54:24;;;;;;;2.80;1.83;;;;;;;;;;5013273;28;20499;-68
2022/04/09 10:56:50;;;;;;;4.47;1.20;;;;;;;;;;5013149;28;20026;-69
2022/04/09 10:59:16;;;;;;;5.55;3.15;;;;;;;;;;5011963;28;20018;-70
2022/04/09 11:01:49;;;;;;;3.08;1.27;;;;;;;;;;5012940;28;20114;-67
2022/04/09 11:04:31;;;;;;;3.38;2.33;;;;;;;;;;5015656;28;20101;-70
2022/04/09 11:07:08;;;;;;;6.13;1.73;;;;;;;;;;5012104;28;20036;-69
2022/04/09 11:09:49;;;;;;;4.32;2.03;;;;;;;;;;5011268;28;20022;-77
2022/04/09 11:12:16;;;;;;;6.55;3.08;;;;;;;;;;5012087;28;20026;-76
2022/04/09 11:14:47;;;;;;;6.28;3.58;;;;;;;;;;5012164;28;20026;-70
2022/04/09 11:17:19;;;;;;;14.13;6.90;;;;;;;;;;5010209;28;20022;-73
2022/04/09 11:19:46;;;;;;;41.50;18.95;;;;;;;;;;5012711;28;20391;-73
2022/04/09 11:22:12;;;;;;;24.88;10.85;;;;;;;;;;5012793;28;20025;-75
2022/04/09 11:24:39;;;;;;;13.20;6.60;;;;;;;;;;5012787;28;20018;-74
2022/04/09 11:27:05;;;;;;;37.90;16.95;;;;;;;;;;5011969;28;20028;-73
2022/04/09 11:29:33;;;;;;;11.50;6.43;;;;;;;;;;4994987;28;20403;-74
2022/04/09 11:31:59;;;;;;;41.30;17.13;;;;;;;;;;5012687;28;20026;-73
2022/04/09 11:34:25;;;;;;;51.25;21.45;;;;;;;;;;5012236;28;20017;-68
2022/04/09 11:36:52;;;;;;;11.88;4.30;;;;;;;;;;5012593;28;20480;-71
2022/04/09 11:39:18;;;;;;;9.25;5.03;;;;;;;;;;5011331;28;20057;-72
2022/04/09 11:41:47;;;;;;;29.83;13.38;;;;;;;;;;5000520;28;20064;-70
2022/04/09 11:44:29;;;;;;;26.83;12.25;;;;;;;;;;4995056;28;20059;-72
2022/04/09 11:46:55;;;;;;;16.48;8.55;;;;;;;;;;5012598;28;20053;-67
2022/04/09 11:49:21;;;;;;;48.47;20.75;;;;;;;;;;4993384;28;20033;-67
2022/04/09 11:51:56;;;;;;;50.67;21.98;;;;;;;;;;5012023;28;20037;-70
2022/04/09 11:54:24;;;;;;;25.25;12.27;;;;;;;;;;5010736;28;20022;-73
2022/04/09 11:56:50;;;;;;;35.72;16.33;;;;;;;;;;5010599;28;20079;-69
2022/04/09 11:59:16;;;;;;;11.73;5.05;;;;;;;;;;5010729;28;20112;-71
2022/04/09 12:01:48;;;;;;;27.33;12.43;;;;;;;;;;5010778;28;20034;-71
2022/04/09 12:04:14;;;;;;;8.38;4.38;;;;;;;;;;5011016;28;20389;-73
2022/04/09 12:06:40;;;;;;;16.27;6.60;;;;;;;;;;5011106;28;20028;-73
2022/04/09 12:09:07;;;;;;;7.65;4.82;;;;;;;;;;5011038;28;20025;-72
2022/04/09 12:11:33;;;;;;;11.07;5.53;;;;;;;;;;5012194;28;20125;-72
2022/04/09 12:14:09;;;;;;;12.05;5.55;;;;;;;;;;5013357;28;20113;-70
2022/04/09 12:16:41;;;;;;;13.00;6.97;;;;;;;;;;5013482;28;20037;-74
2022/04/09 12:19:07;;;;;;;15.10;7.00;;;;;;;;;;4994669;28;20033;-71
2022/04/09 12:21:35;;;;;;;10.07;5.00;;;;;;;;;;5013325;28;20096;-72
2022/04/09 12:24:07;;;;;;;14.80;5.70;;;;;;;;;;4995078;28;20550;-71
2022/04/09 12:26:34;;;;;;;6.32;4.10;;;;;;;;;;5012933;28;20478;-70
2022/04/09 12:29:13;;;;;;;10.98;6.00;;;;;;;;;;5007516;28;20030;-70
2022/04/09 12:31:41;;;;;;;17.08;7.82;;;;;;;;;;4995112;28;20056;-69
2022/04/09 12:34:08;;;;;;;10.73;4.32;;;;;;;;;;5011150;28;20026;-72
2022/04/09 12:36:36;;;;;;;8.98;4.22;;;;;;;;;;5011439;28;20037;-71
2022/04/09 12:39:22;;;;;;;5.65;2.83;;;;;;;;;;5012304;28;20494;-71
2022/04/09 12:41:51;;;;;;;6.93;1.92;;;;;;;;;;5013021;28;20084;-72
2022/04/09 12:44:26;;;;;;;10.00;3.85;;;;;;;;;;5012623;28;20427;-69
2022/04/09 12:46:53;;;;;;;9.70;4.05;;;;;;;;;;4995330;28;20028;-70
2022/04/09 12:49:20;;;;;;;5.15;2.97;;;;;;;;;;5012493;28;20026;-71
2022/04/09 12:51:46;;;;;;;7.43;2.88;;;;;;;;;;4995113;28;20272;-72
2022/04/09 12:54:12;;;;;;;4.65;2.75;;;;;;;;;;4994943;28;20065;-73
2022/04/09 12:56:39;;;;;;;5.35;2.33;;;;;;;;;;5011503;28;20557;-72
2022/04/09 12:59:05;;;;;;;10.45;5.05;;;;;;;;;;4987932;28;20032;-69
2022/04/09 13:01:32;;;;;;;6.90;3.63;;;;;;;;;;4994298;28;20032;-71
2022/04/09 13:03:57;;;;;;;3.58;2.25;;;;;;;;;;5000598;28;20048;-71
2022/04/09 13:06:26;;;;;;;9.50;3.65;;;;;;;;;;5026285;28;20056;-71
2022/04/09 13:08:52;;;;;;;3.20;1.80;;;;;;;;;;4994032;28;20041;-71
2022/04/09 13:11:18;;;;;;;6.32;3.58;;;;;;;;;;4994204;28;20041;-71
2022/04/09 13:13:44;;;;;;;7.45;3.28;;;;;;;;;;5012298;28;20463;-70
2022/04/09 13:16:10;;;;;;;11.18;5.55;;;;;;;;;;5012260;28;20127;-71
2022/04/09 13:18:36;;;;;;;8.85;3.22;;;;;;;;;;4994583;28;20025;-72
2022/04/09 13:21:02;;;;;;;4.82;2.63;;;;;;;;;;5012328;28;20041;-72
2022/04/09 13:23:28;;;;;;;11.85;5.03;;;;;;;;;;4994308;28;20125;-71
2022/04/09 13:25:55;;;;;;;5.15;2.28;;;;;;;;;;4992963;28;20025;-71
2022/04/09 13:28:21;;;;;;;6.25;2.33;;;;;;;;;;5010253;28;20491;-71
2022/04/09 13:30:47;;;;;;;10.00;5.22;;;;;;;;;;5010422;28;20048;-72
2022/04/09 13:33:13;;;;;;;11.27;5.55;;;;;;;;;;5010776;28;20014;-72
2022/04/09 13:35:42;;;;;;;6.53;3.33;;;;;;;;;;5011295;28;20029;-70
2022/04/09 13:38:08;;;;;;;7.32;3.50;;;;;;;;;;4992798;28;20062;-71
2022/04/09 13:40:34;;;;;;;11.85;6.55;;;;;;;;;;4993389;28;20065;-70
2022/04/09 13:43:01;;;;;;;5.38;3.03;;;;;;;;;;5011767;28;20037;-67
2022/04/09 13:45:27;;;;;;;9.93;4.30;;;;;;;;;;5012078;28;20472;-72
2022/04/09 13:47:53;;;;;;;5.70;2.60;;;;;;;;;;4993790;28;20026;-70
2022/04/09 13:50:20;;;;;;;8.10;3.58;;;;;;;;;;5011681;28;20030;-70
2022/04/09 13:52:46;;;;;;;6.47;2.45;;;;;;;;;;5011280;28;20065;-69
2022/04/09 13:55:12;;;;;;;10.75;5.60;;;;;;;;;;4993085;28;20329;-72
2022/04/09 13:57:39;;;;;;;13.38;5.32;;;;;;;;;;4993242;28;20025;-71
2022/04/09 14:00:05;;;;;;;7.70;3.58;;;;;;;;;;4994110;28;20026;-73
2022/04/09 14:02:33;;;;;;;8.95;4.40;;;;;;;;;;4994213;28;20037;-71
2022/04/09 14:05:01;;;;;;;7.13;4.18;;;;;;;;;;5011373;28;20018;-71
2022/04/09 14:07:28;;;;;;;10.38;4.53;;;;;;;;;;4993181;28;20025;-72
2022/04/09 14:09:54;;;;;;;15.13;7.15;;;;;;;;;;5011651;28;20093;-71
2022/04/09 14:12:20;;;;;;;11.13;5.75;;;;;;;;;;5011765;28;20494;-69
2022/04/09 14:14:47;;;;;;;10.18;5.50;;;;;;;;;;4994144;28;20022;-71
2022/04/09 14:17:13;;;;;;;14.43;7.07;;;;;;;;;;5011036;28;20034;-71
2022/04/09 14:19:39;;;;;;;11.65;5.47;;;;;;;;;;4993931;28;20018;-71
2022/04/09 14:22:05;;;;;;;8.18;3.53;;;;;;;;;;5011459;28;20033;-70
2022/04/09 14:24:31;;;;;;;6.93;3.67;;;;;;;;;;5011393;28;20084;-71
2022/04/09 14:26:57;;;;;;;13.40;7.78;;;;;;;;;;5011355;28;20030;-71
2022/04/09 14:29:24;;;;;;;14.00;5.72;;;;;;;;;;5011061;28;20033;-71
2022/04/09 14:31:50;;;;;;;9.98;3.45;;;;;;;;;;5011636;28;20025;-71
2022/04/09 14:34:16;;;;;;;7.97;3.45;;;;;;;;;;5011413;28;20021;-72